sensor_id;sensor_type;location;lat;lon;timestamp;P1;P2;P0
24012;PMS7003;12220;50.194;18.948;2023-06-22T00:01:49;6;6;6
24012;PMS7003;12220;50.194;18.948;2023-06-22T00:03:50;9;7;5
24012;PMS7003;12220;50.194;18.948;2023-06-22T00:05:52;13;6;6
24012;PMS7003;12220;50.194;18.948;2023-06-22T00:07:54;9;8;6
24012;PMS7003;12220;50.194;18.948;2023-06-22T00:10:04;12;11;8
24012;PMS7003;12220;50.194;18.948;2023-06-22T00:12:06;9;7;6
24012;PMS7003;12220;50.194;18.948;2023-06-22T00:14:08;10;10;7
24012;PMS7003;12220;50.194;18.948;2023-06-22T00:16:09;7;6;5
24012;PMS7003;12220;50.194;18.948;2023-06-22T00:18:19;8;8;6
24012;PMS7003;12220;50.194;18.948;2023-06-22T00:20:21;11;8;6
24012;PMS7003;12220;50.194;18.948;2023-06-22T00:22:23;9;9;7
24012;PMS7003;12220;50.194;18.948;2023-06-22T00:24:29;8;8;6
24012;PMS7003;12220;50.194;18.948;2023-06-22T00:26:33;8;8;7
24012;PMS7003;12220;50.194;18.948;2023-06-22T00:28:35;10;9;7
24012;PMS7003;12220;50.194;18.948;2023-06-22T00:30:36;5;5;4
24012;PMS7003;12220;50.194;18.948;2023-06-22T00:32:37;10;10;8
24012;PMS7003;12220;50.194;18.948;2023-06-22T00:34:48;7;7;6
24012;PMS7003;12220;50.194;18.948;2023-06-22T00:36:51;10;10;8
24012;PMS7003;12220;50.194;18.948;2023-06-22T00:38:52;9;9;6
24012;PMS7003;12220;50.194;18.948;2023-06-22T00:40:54;10;10;8
24012;PMS7003;12220;50.194;18.948;2023-06-22T00:43:03;8;7;5
24012;PMS7003;12220;50.194;18.948;2023-06-22T00:45:05;9;9;7
24012;PMS7003;12220;50.194;18.948;2023-06-22T00:47:08;10;9;6
24012;PMS7003;12220;50.194;18.948;2023-06-22T00:49:09;9;9;8
24012;PMS7003;12220;50.194;18.948;2023-06-22T00:51:18;16;11;8
24012;PMS7003;12220;50.194;18.948;2023-06-22T00:53:24;10;8;7
24012;PMS7003;12220;50.194;18.948;2023-06-22T00:55:26;5;5;5
24012;PMS7003;12220;50.194;18.948;2023-06-22T00:57:28;7;7;7
24012;PMS7003;12220;50.194;18.948;2023-06-22T00:59:33;6;6;5
24012;PMS7003;12220;50.194;18.948;2023-06-22T01:01:34;6;6;5
24012;PMS7003;12220;50.194;18.948;2023-06-22T01:03:41;11;10;7
24012;PMS7003;12220;50.194;18.948;2023-06-22T01:05:43;11;11;8
24012;PMS7003;12220;50.194;18.948;2023-06-22T01:07:55;7;7;6
24012;PMS7003;12220;50.194;18.948;2023-06-22T01:12:32;10;10;8
24012;PMS7003;12220;50.194;18.948;2023-06-22T01:14:43;10;10;7
24012;PMS7003;12220;50.194;18.948;2023-06-22T01:16:55;9;9;8
24012;PMS7003;12220;50.194;18.948;2023-06-22T01:19:01;7;6;6
24012;PMS7003;12220;50.194;18.948;2023-06-22T01:21:11;6;6;5
24012;PMS7003;12220;50.194;18.948;2023-06-22T01:30:25;14;11;9
24012;PMS7003;12220;50.194;18.948;2023-06-22T01:32:28;8;8;7
24012;PMS7003;12220;50.194;18.948;2023-06-22T01:34:33;5;5;4
24012;PMS7003;12220;50.194;18.948;2023-06-22T01:36:35;7;6;5
24012;PMS7003;12220;50.194;18.948;2023-06-22T01:38:40;6;6;5
24012;PMS7003;12220;50.194;18.948;2023-06-22T01:40:44;7;7;5
24012;PMS7003;12220;50.194;18.948;2023-06-22T01:42:46;8;6;5
24012;PMS7003;12220;50.194;18.948;2023-06-22T01:44:49;8;8;7
24012;PMS7003;12220;50.194;18.948;2023-06-22T01:46:55;3;3;3
24012;PMS7003;12220;50.194;18.948;2023-06-22T01:48:56;10;5;4
24012;PMS7003;12220;50.194;18.948;2023-06-22T01:50:58;7;7;5
24012;PMS7003;12220;50.194;18.948;2023-06-22T01:53:00;6;6;5
24012;PMS7003;12220;50.194;18.948;2023-06-22T01:55:09;6;6;5
24012;PMS7003;12220;50.194;18.948;2023-06-22T01:57:11;6;6;3
24012;PMS7003;12220;50.194;18.948;2023-06-22T01:59:18;7;5;4
24012;PMS7003;12220;50.194;18.948;2023-06-22T02:01:31;6;5;4
24012;PMS7003;12220;50.194;18.948;2023-06-22T02:05:55;14;14;9
24012;PMS7003;12220;50.194;18.948;2023-06-22T02:08:08;13;13;10
24012;PMS7003;12220;50.194;18.948;2023-06-22T02:10:12;10;9;8
24012;PMS7003;12220;50.194;18.948;2023-06-22T02:12:21;9;9;8
24012;PMS7003;12220;50.194;18.948;2023-06-22T02:14:25;12;12;8
24012;PMS7003;12220;50.194;18.948;2023-06-22T02:16:28;9;8;7
24012;PMS7003;12220;50.194;18.948;2023-06-22T02:18:32;9;9;7
24012;PMS7003;12220;50.194;18.948;2023-06-22T02:20:37;9;6;5
24012;PMS7003;12220;50.194;18.948;2023-06-22T02:22:39;9;9;7
24012;PMS7003;12220;50.194;18.948;2023-06-22T02:24:43;8;7;6
24012;PMS7003;12220;50.194;18.948;2023-06-22T02:26:44;6;6;5
24012;PMS7003;12220;50.194;18.948;2023-06-22T02:28:48;8;8;5
24012;PMS7003;12220;50.194;18.948;2023-06-22T02:30:50;6;6;4
24012;PMS7003;12220;50.194;18.948;2023-06-22T02:32:58;8;8;6
24012;PMS7003;12220;50.194;18.948;2023-06-22T02:35:00;10;9;7
24012;PMS7003;12220;50.194;18.948;2023-06-22T02:37:06;5;0;0
24012;PMS7003;12220;50.194;18.948;2023-06-22T02:39:07;8;8;7
24012;PMS7003;12220;50.194;18.948;2023-06-22T02:41:12;9;9;7
24012;PMS7003;12220;50.194;18.948;2023-06-22T02:43:20;8;8;7
24012;PMS7003;12220;50.194;18.948;2023-06-22T02:45:21;9;6;6
24012;PMS7003;12220;50.194;18.948;2023-06-22T02:47:24;7;7;6
24012;PMS7003;12220;50.194;18.948;2023-06-22T02:49:27;8;6;6
24012;PMS7003;12220;50.194;18.948;2023-06-22T02:51:30;5;5;4
24012;PMS7003;12220;50.194;18.948;2023-06-22T02:53:34;11;8;6
24012;PMS7003;12220;50.194;18.948;2023-06-22T02:55:37;5;5;4
24012;PMS7003;12220;50.194;18.948;2023-06-22T02:57:42;6;4;3
24012;PMS7003;12220;50.194;18.948;2023-06-22T02:59:48;6;6;5
24012;PMS7003;12220;50.194;18.948;2023-06-22T03:01:54;7;6;4
24012;PMS7003;12220;50.194;18.948;2023-06-22T03:03:56;5;4;3
24012;PMS7003;12220;50.194;18.948;2023-06-22T03:05:59;5;5;5
24012;PMS7003;12220;50.194;18.948;2023-06-22T03:08:02;6;6;6
24012;PMS7003;12220;50.194;18.948;2023-06-22T03:10:04;6;6;4
24012;PMS7003;12220;50.194;18.948;2023-06-22T03:12:06;4;4;3
24012;PMS7003;12220;50.194;18.948;2023-06-22T03:14:14;8;7;6
24012;PMS7003;12220;50.194;18.948;2023-06-22T03:16:15;8;5;5
24012;PMS7003;12220;50.194;18.948;2023-06-22T03:18:16;5;5;4
24012;PMS7003;12220;50.194;18.948;2023-06-22T03:20:17;8;6;5
24012;PMS7003;12220;50.194;18.948;2023-06-22T03:22:28;6;6;4
24012;PMS7003;12220;50.194;18.948;2023-06-22T03:24:30;7;7;5
24012;PMS7003;12220;50.194;18.948;2023-06-22T03:26:31;7;6;4
24012;PMS7003;12220;50.194;18.948;2023-06-22T03:28:33;6;6;4
24012;PMS7003;12220;50.194;18.948;2023-06-22T03:30:43;3;3;3
24012;PMS7003;12220;50.194;18.948;2023-06-22T03:32:45;7;7;6
24012;PMS7003;12220;50.194;18.948;2023-06-22T03:34:48;7;5;5
24012;PMS7003;12220;50.194;18.948;2023-06-22T03:36:50;6;6;5
24012;PMS7003;12220;50.194;18.948;2023-06-22T03:38:58;6;6;5
24012;PMS7003;12220;50.194;18.948;2023-06-22T03:40:59;4;4;3
24012;PMS7003;12220;50.194;18.948;2023-06-22T03:43:01;6;5;4
24012;PMS7003;12220;50.194;18.948;2023-06-22T03:45:02;7;6;5
24012;PMS7003;12220;50.194;18.948;2023-06-22T03:47:13;3;3;2
24012;PMS7003;12220;50.194;18.948;2023-06-22T03:49:14;5;5;4
24012;PMS7003;12220;50.194;18.948;2023-06-22T03:51:16;6;5;5
24012;PMS7003;12220;50.194;18.948;2023-06-22T03:53:17;6;6;5
24012;PMS7003;12220;50.194;18.948;2023-06-22T03:55:28;7;6;5
24012;PMS7003;12220;50.194;18.948;2023-06-22T03:57:29;6;5;3
24012;PMS7003;12220;50.194;18.948;2023-06-22T03:59:31;6;6;5
24012;PMS7003;12220;50.194;18.948;2023-06-22T04:01:33;5;5;5
24012;PMS7003;12220;50.194;18.948;2023-06-22T04:03:43;8;6;6
24012;PMS7003;12220;50.194;18.948;2023-06-22T04:05:47;6;6;5
24012;PMS7003;12220;50.194;18.948;2023-06-22T04:07:49;7;7;7
24012;PMS7003;12220;50.194;18.948;2023-06-22T04:09:50;6;6;4
24012;PMS7003;12220;50.194;18.948;2023-06-22T04:11:57;10;10;8
24012;PMS7003;12220;50.194;18.948;2023-06-22T04:13:59;10;8;7
24012;PMS7003;12220;50.194;18.948;2023-06-22T04:16:01;8;6;5
24012;PMS7003;12220;50.194;18.948;2023-06-22T04:18:02;6;6;6
24012;PMS7003;12220;50.194;18.948;2023-06-22T04:20:12;5;5;4
24012;PMS7003;12220;50.194;18.948;2023-06-22T04:22:14;6;6;5
24012;PMS7003;12220;50.194;18.948;2023-06-22T04:24:15;5;5;4
24012;PMS7003;12220;50.194;18.948;2023-06-22T04:26:16;7;7;6
24012;PMS7003;12220;50.194;18.948;2023-06-22T04:28:27;8;8;6
24012;PMS7003;12220;50.194;18.948;2023-06-22T04:30:28;13;9;7
24012;PMS7003;12220;50.194;18.948;2023-06-22T04:32:32;7;7;6
24012;PMS7003;12220;50.194;18.948;2023-06-22T04:34:34;8;8;6
24012;PMS7003;12220;50.194;18.948;2023-06-22T04:36:42;8;8;7
24012;PMS7003;12220;50.194;18.948;2023-06-22T04:38:45;11;11;9
24012;PMS7003;12220;50.194;18.948;2023-06-22T04:40:47;9;9;6
24012;PMS7003;12220;50.194;18.948;2023-06-22T04:42:51;8;8;7
24012;PMS7003;12220;50.194;18.948;2023-06-22T04:44:57;6;6;6
24012;PMS7003;12220;50.194;18.948;2023-06-22T04:46:59;7;7;6
24012;PMS7003;12220;50.194;18.948;2023-06-22T04:49:07;8;8;8
24012;PMS7003;12220;50.194;18.948;2023-06-22T04:51:12;11;11;8
24012;PMS7003;12220;50.194;18.948;2023-06-22T04:53:13;7;7;6
24012;PMS7003;12220;50.194;18.948;2023-06-22T04:55:15;10;10;8
24012;PMS7003;12220;50.194;18.948;2023-06-22T04:57:20;11;11;8
24012;PMS7003;12220;50.194;18.948;2023-06-22T04:59:31;10;10;9
24012;PMS7003;12220;50.194;18.948;2023-06-22T05:01:33;11;11;8
24012;PMS7003;12220;50.194;18.948;2023-06-22T05:03:35;13;12;10
24012;PMS7003;12220;50.194;18.948;2023-06-22T05:05:37;13;10;8
24012;PMS7003;12220;50.194;18.948;2023-06-22T05:07:39;21;13;11
24012;PMS7003;12220;50.194;18.948;2023-06-22T05:09:43;15;15;13
24012;PMS7003;12220;50.194;18.948;2023-06-22T05:11:45;14;13;9
24012;PMS7003;12220;50.194;18.948;2023-06-22T05:13:47;15;15;11
24012;PMS7003;12220;50.194;18.948;2023-06-22T05:15:48;19;18;14
24012;PMS7003;12220;50.194;18.948;2023-06-22T05:17:57;20;19;14
24012;PMS7003;12220;50.194;18.948;2023-06-22T05:19:59;17;17;13
24012;PMS7003;12220;50.194;18.948;2023-06-22T05:22:00;13;13;10
24012;PMS7003;12220;50.194;18.948;2023-06-22T05:24:03;17;16;11
24012;PMS7003;12220;50.194;18.948;2023-06-22T05:26:11;13;13;10
24012;PMS7003;12220;50.194;18.948;2023-06-22T05:28:13;17;17;13
24012;PMS7003;12220;50.194;18.948;2023-06-22T05:30:14;25;20;15
24012;PMS7003;12220;50.194;18.948;2023-06-22T05:32:18;24;21;16
24012;PMS7003;12220;50.194;18.948;2023-06-22T05:34:26;14;14;12
24012;PMS7003;12220;50.194;18.948;2023-06-22T05:36:28;18;18;13
24012;PMS7003;12220;50.194;18.948;2023-06-22T05:38:29;16;16;11
24012;PMS7003;12220;50.194;18.948;2023-06-22T05:40:30;17;16;12
24012;PMS7003;12220;50.194;18.948;2023-06-22T05:42:41;13;13;11
24012;PMS7003;12220;50.194;18.948;2023-06-22T05:44:43;16;15;12
24012;PMS7003;12220;50.194;18.948;2023-06-22T05:46:44;20;16;12
24012;PMS7003;12220;50.194;18.948;2023-06-22T05:48:48;16;16;12
24012;PMS7003;12220;50.194;18.948;2023-06-22T05:50:56;20;18;12
24012;PMS7003;12220;50.194;18.948;2023-06-22T05:52:57;13;13;12
24012;PMS7003;12220;50.194;18.948;2023-06-22T05:54:59;17;17;12
24012;PMS7003;12220;50.194;18.948;2023-06-22T05:57:00;14;12;10
24012;PMS7003;12220;50.194;18.948;2023-06-22T05:59:11;17;15;10
24012;PMS7003;12220;50.194;18.948;2023-06-22T06:01:13;17;16;10
24012;PMS7003;12220;50.194;18.948;2023-06-22T06:03:16;14;12;10
24012;PMS7003;12220;50.194;18.948;2023-06-22T06:05:17;12;12;10
24012;PMS7003;12220;50.194;18.948;2023-06-22T06:07:26;22;21;14
24012;PMS7003;12220;50.194;18.948;2023-06-22T06:09:28;18;18;13
24012;PMS7003;12220;50.194;18.948;2023-06-22T06:11:29;20;20;15
24012;PMS7003;12220;50.194;18.948;2023-06-22T06:13:31;21;21;15
24012;PMS7003;12220;50.194;18.948;2023-06-22T06:15:40;26;26;20
24012;PMS7003;12220;50.194;18.948;2023-06-22T06:18:00;30;27;20
24012;PMS7003;12220;50.194;18.948;2023-06-22T06:19:52;21;21;17
24012;PMS7003;12220;50.194;18.948;2023-06-22T06:21:54;21;20;16
24012;PMS7003;12220;50.194;18.948;2023-06-22T06:23:57;22;22;15
24012;PMS7003;12220;50.194;18.948;2023-06-22T06:25:59;24;19;15
24012;PMS7003;12220;50.194;18.948;2023-06-22T06:28:01;30;25;20
24012;PMS7003;12220;50.194;18.948;2023-06-22T06:30:04;21;19;17
24012;PMS7003;12220;50.194;18.948;2023-06-22T06:32:12;20;20;15
24012;PMS7003;12220;50.194;18.948;2023-06-22T06:34:13;27;23;16
24012;PMS7003;12220;50.194;18.948;2023-06-22T06:36:14;26;25;19
24012;PMS7003;12220;50.194;18.948;2023-06-22T06:38:17;25;23;17
24012;PMS7003;12220;50.194;18.948;2023-06-22T06:40:29;24;24;18
24012;PMS7003;12220;50.194;18.948;2023-06-22T06:42:31;29;28;20
24012;PMS7003;12220;50.194;18.948;2023-06-22T06:44:32;28;28;21
24012;PMS7003;12220;50.194;18.948;2023-06-22T06:46:34;34;30;22
24012;PMS7003;12220;50.194;18.948;2023-06-22T06:48:41;29;29;22
24012;PMS7003;12220;50.194;18.948;2023-06-22T06:50:43;34;31;20
24012;PMS7003;12220;50.194;18.948;2023-06-22T06:52:44;27;27;20
24012;PMS7003;12220;50.194;18.948;2023-06-22T06:54:46;35;31;20
24012;PMS7003;12220;50.194;18.948;2023-06-22T06:56:57;39;35;22
24012;PMS7003;12220;50.194;18.948;2023-06-22T06:58:58;41;34;24
24012;PMS7003;12220;50.194;18.948;2023-06-22T07:01:00;39;35;23
24012;PMS7003;12220;50.194;18.948;2023-06-22T07:03:01;36;32;24
24012;PMS7003;12220;50.194;18.948;2023-06-22T07:05:12;31;29;21
24012;PMS7003;12220;50.194;18.948;2023-06-22T07:07:13;36;31;21
24012;PMS7003;12220;50.194;18.948;2023-06-22T07:09:15;29;29;19
24012;PMS7003;12220;50.194;18.948;2023-06-22T07:11:16;30;29;21
24012;PMS7003;12220;50.194;18.948;2023-06-22T07:13:27;24;23;16
24012;PMS7003;12220;50.194;18.948;2023-06-22T07:15:28;28;28;20
24012;PMS7003;12220;50.194;18.948;2023-06-22T07:17:29;30;29;19
24012;PMS7003;12220;50.194;18.948;2023-06-22T07:19:32;30;29;21
24012;PMS7003;12220;50.194;18.948;2023-06-22T07:21:41;39;35;23
24012;PMS7003;12220;50.194;18.948;2023-06-22T07:23:45;33;32;23
24012;PMS7003;12220;50.194;18.948;2023-06-22T07:25:47;34;31;23
24012;PMS7003;12220;50.194;18.948;2023-06-22T07:30:03;31;28;21
24012;PMS7003;12220;50.194;18.948;2023-06-22T07:32:06;23;23;16
24012;PMS7003;12220;50.194;18.948;2023-06-22T07:34:07;28;28;20
24012;PMS7003;12220;50.194;18.948;2023-06-22T07:36:09;31;30;21
24012;PMS7003;12220;50.194;18.948;2023-06-22T07:38:12;23;22;16
24012;PMS7003;12220;50.194;18.948;2023-06-22T07:40:16;25;25;19
24012;PMS7003;12220;50.194;18.948;2023-06-22T07:42:17;24;24;18
24012;PMS7003;12220;50.194;18.948;2023-06-22T07:44:19;23;22;17
24012;PMS7003;12220;50.194;18.948;2023-06-22T07:46:27;24;23;17
24012;PMS7003;12220;50.194;18.948;2023-06-22T07:48:30;23;22;18
24012;PMS7003;12220;50.194;18.948;2023-06-22T07:50:32;22;22;18
24012;PMS7003;12220;50.194;18.948;2023-06-22T07:52:36;21;21;19
24012;PMS7003;12220;50.194;18.948;2023-06-22T07:54:42;28;26;20
24012;PMS7003;12220;50.194;18.948;2023-06-22T07:56:43;24;24;18
24012;PMS7003;12220;50.194;18.948;2023-06-22T07:58:45;23;22;18
24012;PMS7003;12220;50.194;18.948;2023-06-22T08:00:52;26;26;19
24012;PMS7003;12220;50.194;18.948;2023-06-22T08:02:56;24;24;18
24012;PMS7003;12220;50.194;18.948;2023-06-22T08:04:58;19;19;16
24012;PMS7003;12220;50.194;18.948;2023-06-22T08:06:59;19;19;15
24012;PMS7003;12220;50.194;18.948;2023-06-22T08:09:01;33;29;20
24012;PMS7003;12220;50.194;18.948;2023-06-22T08:11:11;34;27;20
24012;PMS7003;12220;50.194;18.948;2023-06-22T08:13:13;29;29;21
24012;PMS7003;12220;50.194;18.948;2023-06-22T08:15:14;32;30;21
24012;PMS7003;12220;50.194;18.948;2023-06-22T08:17:18;31;30;20
24012;PMS7003;12220;50.194;18.948;2023-06-22T08:19:26;28;27;19
24012;PMS7003;12220;50.194;18.948;2023-06-22T08:21:27;25;25;18
24012;PMS7003;12220;50.194;18.948;2023-06-22T08:23:29;27;25;19
24012;PMS7003;12220;50.194;18.948;2023-06-22T08:25:30;26;25;19
24012;PMS7003;12220;50.194;18.948;2023-06-22T08:27:44;26;25;18
24012;PMS7003;12220;50.194;18.948;2023-06-22T08:29:48;24;24;17
24012;PMS7003;12220;50.194;18.948;2023-06-22T08:31:51;24;24;21
24012;PMS7003;12220;50.194;18.948;2023-06-22T08:33:52;27;27;19
24012;PMS7003;12220;50.194;18.948;2023-06-22T08:35:56;30;21;16
24012;PMS7003;12220;50.194;18.948;2023-06-22T08:37:58;24;24;18
24012;PMS7003;12220;50.194;18.948;2023-06-22T08:40:03;22;22;16
24012;PMS7003;12220;50.194;18.948;2023-06-22T08:42:09;20;20;16
24012;PMS7003;12220;50.194;18.948;2023-06-22T08:44:11;17;16;12
24012;PMS7003;12220;50.194;18.948;2023-06-22T08:46:12;15;15;13
24012;PMS7003;12220;50.194;18.948;2023-06-22T08:48:14;19;17;13
24012;PMS7003;12220;50.194;18.948;2023-06-22T08:50:16;21;21;17
24012;PMS7003;12220;50.194;18.948;2023-06-22T08:52:25;15;15;13
24012;PMS7003;12220;50.194;18.948;2023-06-22T08:54:30;18;18;15
24012;PMS7003;12220;50.194;18.948;2023-06-22T08:56:35;16;16;12
24012;PMS7003;12220;50.194;18.948;2023-06-22T08:58:36;21;20;17
24012;PMS7003;12220;50.194;18.948;2023-06-22T09:00:40;17;16;13
24012;PMS7003;12220;50.194;18.948;2023-06-22T09:02:42;20;20;16
24012;PMS7003;12220;50.194;18.948;2023-06-22T09:04:47;16;16;13
24012;PMS7003;12220;50.194;18.948;2023-06-22T09:06:56;13;13;12
24012;PMS7003;12220;50.194;18.948;2023-06-22T09:08:57;25;25;18
24012;PMS7003;12220;50.194;18.948;2023-06-22T09:11:00;20;20;15
24012;PMS7003;12220;50.194;18.948;2023-06-22T09:13:01;19;19;16
24012;PMS7003;12220;50.194;18.948;2023-06-22T09:15:03;15;15;13
24012;PMS7003;12220;50.194;18.948;2023-06-22T09:17:10;13;13;12
24012;PMS7003;12220;50.194;18.948;2023-06-22T09:19:11;17;17;14
24012;PMS7003;12220;50.194;18.948;2023-06-22T09:21:13;15;15;12
24012;PMS7003;12220;50.194;18.948;2023-06-22T09:23:15;16;16;14
24012;PMS7003;12220;50.194;18.948;2023-06-22T09:25:24;27;24;17
24012;PMS7003;12220;50.194;18.948;2023-06-22T09:27:26;22;22;15
24012;PMS7003;12220;50.194;18.948;2023-06-22T09:29:28;17;17;13
24012;PMS7003;12220;50.194;18.948;2023-06-22T09:31:29;15;15;12
24012;PMS7003;12220;50.194;18.948;2023-06-22T09:33:40;13;13;11
24012;PMS7003;12220;50.194;18.948;2023-06-22T09:35:42;11;11;8
24012;PMS7003;12220;50.194;18.948;2023-06-22T09:37:43;20;18;15
24012;PMS7003;12220;50.194;18.948;2023-06-22T09:39:45;21;21;16
24012;PMS7003;12220;50.194;18.948;2023-06-22T09:41:54;20;19;15
24012;PMS7003;12220;50.194;18.948;2023-06-22T09:43:55;17;16;13
24012;PMS7003;12220;50.194;18.948;2023-06-22T09:45:57;19;17;14
24012;PMS7003;12220;50.194;18.948;2023-06-22T09:47:58;12;12;9
24012;PMS7003;12220;50.194;18.948;2023-06-22T09:50:09;12;12;9
24012;PMS7003;12220;50.194;18.948;2023-06-22T09:52:11;15;15;13
24012;PMS7003;12220;50.194;18.948;2023-06-22T09:54:12;13;12;9
24012;PMS7003;12220;50.194;18.948;2023-06-22T09:56:13;19;18;14
24012;PMS7003;12220;50.194;18.948;2023-06-22T09:58:23;18;18;14
24012;PMS7003;12220;50.194;18.948;2023-06-22T10:00:25;16;16;12
24012;PMS7003;12220;50.194;18.948;2023-06-22T10:02:27;19;19;15
24012;PMS7003;12220;50.194;18.948;2023-06-22T10:04:33;17;17;14
24012;PMS7003;12220;50.194;18.948;2023-06-22T10:06:38;17;17;13
24012;PMS7003;12220;50.194;18.948;2023-06-22T10:08:41;13;13;12
24012;PMS7003;12220;50.194;18.948;2023-06-22T10:10:42;13;13;10
24012;PMS7003;12220;50.194;18.948;2023-06-22T10:12:47;14;13;11
24012;PMS7003;12220;50.194;18.948;2023-06-22T10:14:53;13;13;11
24012;PMS7003;12220;50.194;18.948;2023-06-22T10:16:55;15;15;12
24012;PMS7003;12220;50.194;18.948;2023-06-22T10:18:56;12;12;10
24012;PMS7003;12220;50.194;18.948;2023-06-22T10:20:58;15;15;13
24012;PMS7003;12220;50.194;18.948;2023-06-22T10:23:08;17;17;15
24012;PMS7003;12220;50.194;18.948;2023-06-22T10:25:10;15;15;11
24012;PMS7003;12220;50.194;18.948;2023-06-22T10:27:12;17;17;14
24012;PMS7003;12220;50.194;18.948;2023-06-22T10:29:14;13;13;10
24012;PMS7003;12220;50.194;18.948;2023-06-22T10:31:22;13;13;11
24012;PMS7003;12220;50.194;18.948;2023-06-22T10:33:24;8;8;8
24012;PMS7003;12220;50.194;18.948;2023-06-22T10:35:25;7;7;6
24012;PMS7003;12220;50.194;18.948;2023-06-22T10:37:26;13;12;10
24012;PMS7003;12220;50.194;18.948;2023-06-22T10:39:37;16;15;11
24012;PMS7003;12220;50.194;18.948;2023-06-22T10:41:39;12;12;11
24012;PMS7003;12220;50.194;18.948;2023-06-22T10:43:40;14;14;10
24012;PMS7003;12220;50.194;18.948;2023-06-22T10:45:41;8;8;7
24012;PMS7003;12220;50.194;18.948;2023-06-22T10:47:52;7;7;6
24012;PMS7003;12220;50.194;18.948;2023-06-22T10:49:53;11;11;9
24012;PMS7003;12220;50.194;18.948;2023-06-22T10:51:55;12;12;10
24012;PMS7003;12220;50.194;18.948;2023-06-22T10:53:56;15;15;13
24012;PMS7003;12220;50.194;18.948;2023-06-22T10:56:07;13;13;10
24012;PMS7003;12220;50.194;18.948;2023-06-22T10:58:08;13;13;11
24012;PMS7003;12220;50.194;18.948;2023-06-22T11:00:10;9;9;8
24012;PMS7003;12220;50.194;18.948;2023-06-22T11:02:13;13;13;10
24012;PMS7003;12220;50.194;18.948;2023-06-22T11:04:21;10;10;8
24012;PMS7003;12220;50.194;18.948;2023-06-22T11:06:23;10;10;8
24012;PMS7003;12220;50.194;18.948;2023-06-22T11:08:24;15;15;13
24012;PMS7003;12220;50.194;18.948;2023-06-22T11:10:26;13;13;10
24012;PMS7003;12220;50.194;18.948;2023-06-22T11:12:36;17;15;12
24012;PMS7003;12220;50.194;18.948;2023-06-22T11:14:38;17;17;14
24012;PMS7003;12220;50.194;18.948;2023-06-22T11:16:40;13;12;10
24012;PMS7003;12220;50.194;18.948;2023-06-22T11:18:42;13;13;12
24012;PMS7003;12220;50.194;18.948;2023-06-22T11:20:51;12;12;10
24012;PMS7003;12220;50.194;18.948;2023-06-22T11:22:53;13;11;8
24012;PMS7003;12220;50.194;18.948;2023-06-22T11:24:55;15;15;13
24012;PMS7003;12220;50.194;18.948;2023-06-22T11:26:56;13;13;11
24012;PMS7003;12220;50.194;18.948;2023-06-22T11:29:06;11;11;10
24012;PMS7003;12220;50.194;18.948;2023-06-22T11:31:08;12;12;10
24012;PMS7003;12220;50.194;18.948;2023-06-22T11:33:10;13;13;12
24012;PMS7003;12220;50.194;18.948;2023-06-22T11:35:11;11;11;10
24012;PMS7003;12220;50.194;18.948;2023-06-22T11:37:20;12;12;11
24012;PMS7003;12220;50.194;18.948;2023-06-22T11:39:22;11;11;10
24012;PMS7003;12220;50.194;18.948;2023-06-22T11:41:23;11;10;7
24012;PMS7003;12220;50.194;18.948;2023-06-22T11:43:26;12;12;9
24012;PMS7003;12220;50.194;18.948;2023-06-22T11:45:35;9;9;8
24012;PMS7003;12220;50.194;18.948;2023-06-22T11:47:38;13;13;11
24012;PMS7003;12220;50.194;18.948;2023-06-22T11:49:40;13;13;11
24012;PMS7003;12220;50.194;18.948;2023-06-22T11:51:42;12;12;10
24012;PMS7003;12220;50.194;18.948;2023-06-22T11:53:50;17;16;13
24012;PMS7003;12220;50.194;18.948;2023-06-22T11:55:51;10;10;8
24012;PMS7003;12220;50.194;18.948;2023-06-22T11:57:55;12;12;9
24012;PMS7003;12220;50.194;18.948;2023-06-22T12:00:01;12;11;10
24012;PMS7003;12220;50.194;18.948;2023-06-22T12:02:11;10;10;9
24012;PMS7003;12220;50.194;18.948;2023-06-22T12:04:13;17;15;12
24012;PMS7003;12220;50.194;18.948;2023-06-22T12:06:18;12;12;8
24012;PMS7003;12220;50.194;18.948;2023-06-22T12:08:20;7;7;7
24012;PMS7003;12220;50.194;18.948;2023-06-22T12:10:24;10;10;9
24012;PMS7003;12220;50.194;18.948;2023-06-22T12:14:56;9;8;6
24012;PMS7003;12220;50.194;18.948;2023-06-22T12:16:57;13;12;9
24012;PMS7003;12220;50.194;18.948;2023-06-22T12:19:07;13;13;9
24012;PMS7003;12220;50.194;18.948;2023-06-22T12:21:09;11;11;8
24012;PMS7003;12220;50.194;18.948;2023-06-22T12:23:10;13;13;10
24012;PMS7003;12220;50.194;18.948;2023-06-22T12:25:12;15;14;11
24012;PMS7003;12220;50.194;18.948;2023-06-22T12:27:22;13;12;10
24012;PMS7003;12220;50.194;18.948;2023-06-22T12:29:23;12;12;11
24012;PMS7003;12220;50.194;18.948;2023-06-22T12:31:24;10;10;8
24012;PMS7003;12220;50.194;18.948;2023-06-22T12:33:26;10;10;8
24012;PMS7003;12220;50.194;18.948;2023-06-22T12:35:36;14;14;12
24012;PMS7003;12220;50.194;18.948;2023-06-22T12:37:38;11;11;9
24012;PMS7003;12220;50.194;18.948;2023-06-22T12:39:40;18;18;11
24012;PMS7003;12220;50.194;18.948;2023-06-22T12:41:42;17;17;13
24012;PMS7003;12220;50.194;18.948;2023-06-22T12:43:51;12;12;10
24012;PMS7003;12220;50.194;18.948;2023-06-22T12:45:52;13;12;11
24012;PMS7003;12220;50.194;18.948;2023-06-22T12:47:54;16;16;14
24012;PMS7003;12220;50.194;18.948;2023-06-22T12:49:55;15;15;12
24012;PMS7003;12220;50.194;18.948;2023-06-22T12:52:09;17;16;12
24012;PMS7003;12220;50.194;18.948;2023-06-22T12:54:13;18;17;14
24012;PMS7003;12220;50.194;18.948;2023-06-22T12:56:15;11;11;10
24012;PMS7003;12220;50.194;18.948;2023-06-22T12:58:16;12;12;10
24012;PMS7003;12220;50.194;18.948;2023-06-22T13:00:21;17;14;12
24012;PMS7003;12220;50.194;18.948;2023-06-22T13:02:22;19;16;14
24012;PMS7003;12220;50.194;18.948;2023-06-22T13:04:24;11;11;8
24012;PMS7003;12220;50.194;18.948;2023-06-22T13:06:25;13;12;11
24012;PMS7003;12220;50.194;18.948;2023-06-22T13:08:35;9;9;8
24012;PMS7003;12220;50.194;18.948;2023-06-22T13:10:37;17;15;12
24012;PMS7003;12220;50.194;18.948;2023-06-22T13:12:38;12;12;11
24012;PMS7003;12220;50.194;18.948;2023-06-22T13:14:39;11;11;10
24012;PMS7003;12220;50.194;18.948;2023-06-22T13:16:50;14;14;12
24012;PMS7003;12220;50.194;18.948;2023-06-22T13:18:51;14;14;12
24012;PMS7003;12220;50.194;18.948;2023-06-22T13:20:53;11;11;8
24012;PMS7003;12220;50.194;18.948;2023-06-22T13:22:55;10;10;8
24012;PMS7003;12220;50.194;18.948;2023-06-22T13:25:05;16;15;12
24012;PMS7003;12220;50.194;18.948;2023-06-22T13:27:08;11;10;8
24012;PMS7003;12220;50.194;18.948;2023-06-22T13:29:09;16;16;14
24012;PMS7003;12220;50.194;18.948;2023-06-22T13:31:10;15;15;13
24012;PMS7003;12220;50.194;18.948;2023-06-22T13:33:19;11;11;9